DNMA

Details ICAO DNMA (MIU)
Name MAIDUGURI
Region Nigeria
Timezone Africa/Lagos (UTC+1.0)
Plans Departing 25
Arriving 19
Stats Elevation 1,099 ft / 335 m (AMSL)
Location 11.855200° 13.081300°
Runways 1
Magnetic Variation 0.866° E
Sunrise 2018-10-19 04:58:47 UTC / 2018-10-19 05:58:47 Local
Sunset 2018-10-19 16:48:51 UTC / 2018-10-19 17:48:51 Local
Advertisement - Login to hide

Runways

ID Width Length Bearing (true/mag) Surface Threshold Overrun Markings Lighting
05 197 ft / 60 m 9,866 ft / 3,007 m 46.51° / 45.64° ASPHALT 0 ft / 0 m 333 ft / 102 m PREC-APP CENTERLINE EDGE THRESHOLD ALSF-II TDZ
23 197 ft / 60 m 9,866 ft / 3,007 m 226.51° / 225.64° ASPHALT 0 ft / 0 m 336 ft / 102 m APP CENTERLINE EDGE THRESHOLD ALSF-II TDZ

Approach Navaids

Runway Type Ident Frequency Range Bearing (true/mag) Slope Elevation
05 LOC-ILS IMA 110.30 MHz 18 nm / 33 km 46.51° / 45.64° - 1,096 ft / 334 m (AMSL)
05 GS IMA 110.30 MHz 10 nm / 19 km 47.02° / 46.15° 3.00° 1,138 ft / 347 m (AMSL)
05 IM IM - - 46.51° / 45.64° - 1,145 ft / 349 m (AMSL)
05 DME IMA 110.80 MHz 18 nm / 33 km - - 1,222 ft / 372 m (AMSL)

Map

Weather


0- 5 10 15 20 25 30 35+ Temperature / °C

Clouds and Precipitation
Forecast for 2018-10-19 18:00 UTC. Updated 27 minutes ago

Ground ~20,000 ft ~40,000 ft Winds

METAR

Not found

TAF

TAF DNMA 190950Z 1912/2018 27008KT CAVOK

Frequencies

Tower 123.10 MHz
Warning: Do not use this data for real-world aviation or navigation. No guarantee of current accuracy is given.